Time;durP1;ratioP1;P1;durP2;ratioP2;P2;SDS_P1;SDS_P2;PMS_P1;PMS_P2;Temp;Humidity;BMP_temperature;BMP_pressure;BME280_temperature;BME280_humidity;BME280_pressure;Samples;Min_cycle;Max_cycle;Signal;HPM_P1;HPM_P2
2023/08/01 00:07:11;;;;;;;1.80;1.70;;;;;;;28.10;51.47;101413.22;21056483;28;20029;-75
2023/08/01 00:17:13;;;;;;;2.65;1.92;;;;;;;28.18;51.44;101431.31;21083131;28;20074;-75
2023/08/01 00:27:14;;;;;;;2.95;2.50;;;;;;;28.19;51.25;101453.53;21087721;28;20545;-73
2023/08/01 00:37:16;;;;;;;2.67;2.35;;;;;;;28.25;51.17;101457.88;21089051;28;20059;-74
2023/08/01 00:47:18;;;;;;;2.58;2.22;;;;;;;28.07;51.14;101433.56;21088349;28;20032;-74
2023/08/01 00:57:20;;;;;;;1.92;1.83;;;;;;;28.27;51.13;101478.09;21086327;28;20094;-75
2023/08/01 01:07:23;;;;;;;2.13;1.92;;;;;;;28.31;50.96;101495.97;21087348;28;20036;-76
2023/08/01 01:17:25;;;;;;;2.72;2.53;;;;;;;28.28;50.84;101513.53;21084774;28;20062;-75
2023/08/01 01:27:27;;;;;;;2.72;2.50;;;;;;;28.34;50.77;101523.53;21084217;28;20028;-76
2023/08/01 01:37:28;;;;;;;2.47;2.28;;;;;;;28.41;50.62;101533.50;21082966;28;20105;-74
2023/08/01 01:47:30;;;;;;;2.53;2.33;;;;;;;28.41;50.59;101550.41;21083145;28;20055;-76
2023/08/01 01:57:36;;;;;;;2.67;2.40;;;;;;;28.41;50.47;101551.25;21082697;28;20043;-74
2023/08/01 02:07:37;;;;;;;2.22;2.03;;;;;;;28.41;50.40;101556.88;21081493;28;20040;-75
2023/08/01 02:17:39;;;;;;;2.40;1.88;;;;;;;28.48;50.50;101574.16;21080464;28;20491;-75
2023/08/01 02:27:50;;;;;;;2.58;2.38;;;;;;;28.49;50.40;101575.81;21081334;28;20103;-74
2023/08/01 02:37:51;;;;;;;3.53;2.78;;;;;;;28.51;50.36;101589.59;21136422;28;20167;-74
2023/08/01 02:47:53;;;;;;;2.47;2.28;;;;;;;28.52;50.36;101594.06;21091919;28;20070;-77
2023/08/01 02:57:57;;;;;;;2.20;2.05;;;;;;;28.45;50.07;101579.59;21078060;28;20052;-74
2023/08/01 03:07:59;;;;;;;1.88;1.73;;;;;;;28.55;50.27;101599.91;21077338;28;20406;-74
2023/08/01 03:18:00;;;;;;;2.22;2.03;;;;;;;28.59;50.20;101605.72;21076766;28;20036;-74
2023/08/01 03:28:05;;;;;;;2.28;2.08;;;;;;;28.59;50.11;101619.78;21075643;28;20032;-73
2023/08/01 03:38:06;;;;;;;2.22;2.03;;;;;;;28.46;50.22;101610.25;21076254;28;20032;-75
2023/08/01 03:48:07;;;;;;;2.05;1.83;;;;;;;28.56;50.35;101631.72;21080929;28;20036;-74
2023/08/01 03:58:09;;;;;;;2.20;2.00;;;;;;;28.60;50.16;101652.44;21091382;28;20399;-73
2023/08/01 04:08:10;;;;;;;2.38;2.17;;;;;;;28.58;50.15;101640.66;21089726;28;20040;-73
2023/08/01 04:18:14;;;;;;;2.28;2.08;;;;;;;28.61;49.89;101629.59;21090846;28;20407;-74
2023/08/01 04:28:16;;;;;;;2.65;1.85;;;;;;;28.62;50.15;101647.31;21088722;28;20476;-75
2023/08/01 04:38:17;;;;;;;2.08;1.88;;;;;;;28.45;50.00;101613.38;21089052;28;20085;-75
2023/08/01 04:48:19;;;;;;;3.40;2.15;;;;;;;28.60;50.11;101638.38;21087540;28;20600;-75
2023/08/01 04:58:20;;;;;;;2.30;2.10;;;;;;;28.64;49.97;101636.59;21086137;28;20036;-74
2023/08/01 05:08:21;;;;;;;2.10;1.90;;;;;;;28.62;49.96;101636.88;21085558;28;20032;-75
2023/08/01 05:18:23;;;;;;;2.45;2.25;;;;;;;28.69;50.08;101642.09;21085339;28;20101;-74
2023/08/01 05:28:24;;;;;;;2.00;1.80;;;;;;;28.70;49.82;101643.75;21083494;28;20356;-74
2023/08/01 05:38:26;;;;;;;2.35;2.15;;;;;;;28.70;49.88;101649.41;21084170;28;20036;-74
2023/08/01 05:48:27;;;;;;;2.13;1.92;;;;;;;28.73;49.86;101634.69;21082390;28;20467;-74
2023/08/01 05:58:28;;;;;;;2.08;1.90;;;;;;;28.68;50.01;101643.22;21081702;28;20035;-73
2023/08/01 06:08:30;;;;;;;1.80;1.70;;;;;;;28.68;50.04;101646.03;21080343;28;20036;-74
2023/08/01 06:18:31;;;;;;;2.00;1.80;;;;;;;28.72;49.80;101635.81;21079744;28;20078;-74
2023/08/01 06:28:33;;;;;;;2.35;2.15;;;;;;;28.70;49.63;101638.13;21079682;28;20558;-74
2023/08/01 06:38:34;;;;;;;2.42;2.22;;;;;;;28.57;49.80;101616.47;21079055;28;20097;-74
2023/08/01 06:48:36;;;;;;;2.42;2.20;;;;;;;28.63;49.97;101643.34;21077761;28;20195;-73
2023/08/01 06:58:37;;;;;;;2.25;2.05;;;;;;;28.61;49.99;101640.03;21077805;28;20093;-74
2023/08/01 07:08:39;;;;;;;2.30;2.10;;;;;;;28.61;49.75;101637.22;21077323;28;20024;-74
2023/08/01 07:18:40;;;;;;;2.22;2.03;;;;;;;28.64;49.78;101633.78;21076173;28;20129;-74
2023/08/01 07:28:42;;;;;;;2.60;2.38;;;;;;;28.65;49.79;101652.34;21101614;28;20101;-74
2023/08/01 07:38:46;;;;;;;2.50;2.30;;;;;;;28.60;49.64;101642.03;21103732;28;20467;-74
2023/08/01 07:48:48;;;;;;;2.40;2.20;;;;;;;28.59;49.64;101653.56;21103310;28;20047;-75
2023/08/01 07:58:50;;;;;;;2.63;2.42;;;;;;;28.66;49.58;101659.63;21102427;28;20040;-75
2023/08/01 08:08:51;;;;;;;2.60;2.30;;;;;;;28.62;49.33;101655.78;21102973;28;20039;-74
2023/08/01 08:18:52;;;;;;;2.75;2.55;;;;;;;28.68;49.48;101673.38;21102274;28;20043;-75
2023/08/01 08:28:54;;;;;;;3.00;2.80;;;;;;;28.60;49.43;101672.16;21101929;28;20595;-74
2023/08/01 08:38:55;;;;;;;3.00;2.70;;;;;;;28.63;49.32;101689.25;21089936;28;20036;-76
2023/08/01 08:48:57;;;;;;;3.03;2.72;;;;;;;28.57;49.13;101713.03;21086166;28;20052;-75
2023/08/01 08:59:02;;;;;;;3.72;2.90;;;;;;;28.50;49.22;101706.16;21087140;28;20024;-75
2023/08/01 09:09:11;;;;;;;2.67;2.47;;;;;;;28.67;48.84;101736.50;21085484;28;20036;-74
2023/08/01 09:19:20;;;;;;;2.80;2.50;;;;;;;28.60;48.78;101734.94;21084743;28;20488;-76
2023/08/01 09:29:27;;;;;;;3.10;2.60;;;;;;;28.61;48.66;101735.78;21084651;28;20131;-76
2023/08/01 09:39:28;;;;;;;3.63;3.08;;;;;;;28.52;49.09;101748.91;21084544;28;20052;-75
2023/08/01 09:49:31;;;;;;;3.05;2.42;;;;;;;28.57;48.85;101768.53;21083168;28;20089;-75
2023/08/01 09:59:33;;;;;;;3.33;2.90;;;;;;;28.59;48.66;101788.75;21082580;28;20040;-76
2023/08/01 10:09:36;;;;;;;3.15;2.85;;;;;;;28.51;48.84;101797.94;21083485;28;20039;-75
2023/08/01 10:19:37;;;;;;;3.42;3.08;;;;;;;28.59;48.49;101802.81;21087416;28;20048;-76
2023/08/01 10:29:39;;;;;;;3.40;3.05;;;;;;;28.48;48.37;101781.66;21086989;28;20032;-75
2023/08/01 10:39:40;;;;;;;3.60;3.30;;;;;;;28.53;48.35;101798.44;21060828;28;20044;-74
2023/08/01 10:49:46;;;;;;;3.20;2.90;;;;;;;28.52;48.40;101816.50;21078074;28;20372;-74
2023/08/01 10:59:47;;;;;;;3.25;2.92;;;;;;;28.44;48.54;101825.66;21077176;28;20379;-74
2023/08/01 11:09:49;;;;;;;3.10;2.67;;;;;;;28.43;48.21;101830.47;21077680;28;20024;-75
2023/08/01 11:19:50;;;;;;;3.00;2.70;;;;;;;28.30;48.40;101829.25;21076561;28;20069;-76
2023/08/01 11:29:52;;;;;;;3.85;3.08;;;;;;;28.53;48.17;101863.22;21076320;28;20024;-74
2023/08/01 11:39:55;;;;;;;3.25;2.95;;;;;;;28.47;47.97;101847.56;21075348;28;20399;-75
2023/08/01 11:49:56;;;;;;;3.28;2.95;;;;;;;28.47;48.28;101879.38;21074918;28;20036;-75
2023/08/01 11:59:58;;;;;;;3.20;2.90;;;;;;;28.52;48.01;101884.91;21075327;28;20023;-75
2023/08/01 12:10:00;;;;;;;2.83;2.60;;;;;;;28.52;47.98;101898.97;21081503;28;20021;-75
2023/08/01 12:20:02;;;;;;;2.70;2.50;;;;;;;28.43;48.24;101881.13;21090020;28;20048;-78
2023/08/01 12:30:04;;;;;;;3.17;2.80;;;;;;;28.46;47.92;101896.59;21089803;28;20059;-75
2023/08/01 12:40:06;;;;;;;2.92;2.58;;;;;;;28.49;48.04;101901.56;21088446;28;20036;-76
2023/08/01 12:50:08;;;;;;;3.22;2.92;;;;;;;28.43;48.00;101897.19;21087183;28;20040;-76
2023/08/01 13:00:10;;;;;;;3.00;2.53;;;;;;;28.56;47.90;101902.03;21086816;28;20461;-76
2023/08/01 13:10:11;;;;;;;2.80;2.50;;;;;;;28.55;47.68;101901.19;21086506;28;20028;-76
2023/08/01 13:20:13;;;;;;;3.17;2.85;;;;;;;28.53;47.80;101919.53;21084339;28;20040;-76
2023/08/01 13:30:17;;;;;;;3.03;2.72;;;;;;;28.53;47.79;101925.16;21085036;28;20541;-77
2023/08/01 13:40:18;;;;;;;3.08;2.78;;;;;;;28.49;48.03;101919.31;21084308;28;20044;-75
2023/08/01 13:50:20;;;;;;;2.92;2.63;;;;;;;28.54;47.73;101915.56;21080966;28;20552;-74
2023/08/01 14:00:21;;;;;;;3.20;2.90;;;;;;;28.57;47.60;101909.31;21082528;28;20032;-74
2023/08/01 14:10:23;;;;;;;3.20;2.90;;;;;;;28.41;47.78;101888.22;21082531;28;20043;-75
2023/08/01 14:20:24;;;;;;;3.20;2.90;;;;;;;28.39;47.86;101884.88;21080600;28;20036;-77
2023/08/01 14:30:26;;;;;;;2.95;2.65;;;;;;;28.53;47.77;101923.16;21080505;28;20047;-76
2023/08/01 14:40:27;;;;;;;2.80;2.50;;;;;;;28.54;47.70;101926.81;21079121;28;20050;-76
2023/08/01 14:50:28;;;;;;;2.50;2.30;;;;;;;28.50;47.94;101918.19;21078725;28;20039;-74
2023/08/01 15:00:30;;;;;;;3.00;2.70;;;;;;;28.57;47.78;101937.47;21078538;28;20031;-75
2023/08/01 15:10:31;;;;;;;3.15;2.70;;;;;;;28.54;47.80;101926.81;21081674;28;20031;-76
2023/08/01 15:20:35;;;;;;;2.97;2.70;;;;;;;28.57;48.01;101937.47;21083229;28;20537;-76
2023/08/01 15:30:36;;;;;;;3.22;2.47;;;;;;;28.60;47.47;101948.13;21077124;28;20020;-77
2023/08/01 15:40:37;;;;;;;2.63;2.42;;;;;;;28.53;47.76;101919.53;21077369;28;20044;-74
2023/08/01 15:50:41;;;;;;;2.85;2.65;;;;;;;28.59;47.53;101923.91;21095781;28;20035;-74
2023/08/01 16:00:43;;;;;;;2.60;2.40;;;;;;;28.53;47.58;101903.47;21093607;28;20043;-77
2023/08/01 16:10:45;;;;;;;3.38;2.88;;;;;;;28.62;47.39;101920.47;21092118;28;20036;-76
2023/08/01 16:20:46;;;;;;;2.97;2.58;;;;;;;28.63;47.61;101908.91;21093698;28;20052;-76
2023/08/01 16:30:52;;;;;;;2.58;2.38;;;;;;;28.66;47.41;101907.44;21090966;28;20040;-77
2023/08/01 16:40:56;;;;;;;2.60;2.40;;;;;;;28.64;47.44;101892.84;21090431;28;20031;-77
2023/08/01 16:50:58;;;;;;;2.90;2.60;;;;;;;28.67;47.40;101892.22;21092842;28;20040;-76
2023/08/01 17:00:59;;;;;;;2.92;2.60;;;;;;;28.36;46.45;101864.66;21087040;28;20044;-77
2023/08/01 17:11:10;;;;;;;2.90;2.50;;;;;;;27.82;46.45;101899.88;21088184;28;20032;-76
2023/08/01 17:21:11;;;;;;;2.60;2.40;;;;;;;27.28;46.74;101863.81;21087162;28;20479;-77
2023/08/01 17:31:13;;;;;;;3.03;2.72;;;;;;;27.07;46.77;101872.47;21086097;28;20061;-77
2023/08/01 17:41:23;;;;;;;3.42;2.70;;;;;;;27.01;47.18;101886.91;21084368;28;20040;-76
2023/08/01 17:51:24;;;;;;;2.65;2.38;;;;;;;26.86;47.40;101877.53;21083074;28;20445;-77
2023/08/01 18:01:28;;;;;;;3.00;2.70;;;;;;;26.66;47.49;101855.28;21083485;28;20036;-78
2023/08/01 18:11:30;;;;;;;2.47;2.28;;;;;;;26.65;47.94;101861.22;21083343;28;20040;-76
2023/08/01 18:21:31;;;;;;;2.97;2.55;;;;;;;26.68;48.10;101883.94;21081862;28;20109;-76
2023/08/01 18:31:33;;;;;;;2.88;2.30;;;;;;;26.60;48.17;101888.22;21081292;28;20036;-76
2023/08/01 18:41:34;;;;;;;2.55;2.33;;;;;;;26.60;50.97;101896.63;21081833;28;20059;-76
2023/08/01 18:51:36;;;;;;;2.60;2.40;;;;;;;26.98;51.16;101895.94;21111018;28;20020;-74
2023/08/01 19:01:37;;;;;;;2.50;2.30;;;;;;;27.18;50.86;101862.00;21120192;28;20494;-75
2023/08/01 19:11:38;;;;;;;2.95;2.42;;;;;;;27.47;50.44;101880.69;21078350;28;20101;-77
2023/08/01 19:21:41;;;;;;;2.92;2.40;;;;;;;27.59;50.04;101870.69;21076631;28;20052;-75
2023/08/01 19:31:42;;;;;;;3.08;2.25;;;;;;;27.67;49.89;101852.25;21075054;28;20040;-75
2023/08/01 19:41:44;;;;;;;2.58;2.38;;;;;;;27.77;50.03;101854.97;21075711;28;20048;-76
2023/08/01 19:51:45;;;;;;;2.42;2.22;;;;;;;27.88;49.24;101851.97;21076075;28;20085;-76
2023/08/01 20:01:48;;;;;;;2.50;2.30;;;;;;;27.94;49.47;101845.13;21078662;28;20051;-76
2023/08/01 20:11:50;;;;;;;2.85;2.65;;;;;;;28.01;49.15;101845.56;21087830;28;20058;-75
2023/08/01 20:21:53;;;;;;;2.42;2.05;;;;;;;28.00;49.22;101841.09;21074498;28;20149;-77
2023/08/01 20:31:54;;;;;;;2.60;2.28;;;;;;;28.08;48.84;101834.72;21082029;28;20380;-76
2023/08/01 20:41:57;;;;;;;2.70;2.20;;;;;;;28.12;48.80;101830.16;21088913;28;20028;-74
2023/08/01 20:52:01;;;;;;;2.58;2.15;;;;;;;28.11;48.81;101817.25;21070363;28;20044;-75
2023/08/01 21:02:02;;;;;;;2.75;2.50;;;;;;;27.96;48.56;101780.97;21086379;28;20036;-75
2023/08/01 21:12:07;;;;;;;2.45;2.25;;;;;;;28.17;48.57;101796.28;21086570;28;20023;-76
2023/08/01 21:22:09;;;;;;;3.17;2.88;;;;;;;28.14;48.45;101780.06;21084704;28;20040;-73
2023/08/01 21:32:11;;;;;;;2.78;2.35;;;;;;;28.26;48.42;101797.25;21086149;28;20505;-75
2023/08/01 21:42:13;;;;;;;2.50;2.30;;;;;;;28.26;48.46;101799.22;21083347;28;20027;-74
2023/08/01 21:52:14;;;;;;;2.38;2.17;;;;;;;28.25;48.32;101789.97;21065487;28;20028;-76
2023/08/01 22:02:15;;;;;;;2.20;2.00;;;;;;;28.31;48.48;101802.78;21065132;28;20028;-75
2023/08/01 22:12:17;;;;;;;2.30;2.10;;;;;;;28.36;48.23;101794.28;21063446;28;20040;-76
2023/08/01 22:22:23;;;;;;;2.28;2.08;;;;;;;28.41;48.21;101796.16;21081529;28;20051;-76
2023/08/01 22:32:24;;;;;;;2.20;2.00;;;;;;;28.34;48.46;101798.50;21081551;28;20426;-76
2023/08/01 22:42:26;;;;;;;2.30;2.10;;;;;;;28.39;48.31;101803.25;21080431;28;20028;-75
2023/08/01 22:52:29;;;;;;;2.50;2.30;;;;;;;28.38;48.42;101810.84;21079150;28;20028;-75
2023/08/01 23:02:31;;;;;;;2.00;1.80;;;;;;;28.43;48.32;101829.63;21061510;28;20101;-75
2023/08/01 23:12:33;;;;;;;3.67;2.25;;;;;;;28.31;48.26;101816.84;21078556;28;20074;-76
2023/08/01 23:22:36;;;;;;;1.92;1.83;;;;;;;28.41;48.37;101841.22;21077291;28;20070;-74
2023/08/01 23:32:37;;;;;;;2.03;1.77;;;;;;;28.47;48.19;101870.09;21077365;28;20085;-73
2023/08/01 23:42:39;;;;;;;2.05;1.90;;;;;;;28.42;48.28;101864.56;21076377;28;20051;-76
2023/08/01 23:52:43;;;;;;;2.65;2.10;;;;;;;28.31;48.41;101845.00;21076570;28;20042;-74
